createdAt,value
2023-03-27T00:00:28.813Z,46.90
2023-03-27T00:01:31.521Z,48.30
2023-03-27T00:02:33.809Z,39.90
2023-03-27T00:03:38.027Z,45.90
2023-03-27T00:04:41.862Z,39.90
2023-03-27T00:05:45.439Z,20.50
2023-03-27T00:06:48.542Z,13.10
2023-03-27T00:07:51.711Z,15.36
2023-03-27T00:08:54.061Z,13.00
2023-03-27T00:09:57.009Z,20.30
2023-03-27T00:11:02.260Z,18.91
2023-03-27T00:12:05.498Z,16.40
2023-03-27T00:13:10.587Z,26.50
2023-03-27T00:14:13.520Z,26.30
2023-03-27T00:15:16.637Z,26.36
2023-03-27T00:16:22.217Z,23.60
2023-03-27T00:17:24.518Z,27.20
2023-03-27T00:18:30.475Z,31.30
2023-03-27T00:19:33.679Z,25.50
2023-03-27T00:20:36.854Z,21.60
2023-03-27T00:21:39.837Z,16.70
2023-03-27T00:22:42.825Z,16.18
2023-03-27T00:23:46.232Z,16.90
2023-03-27T00:24:48.550Z,22.70
2023-03-27T00:25:51.693Z,19.80
2023-03-27T00:26:54.910Z,20.20
2023-03-27T00:27:58.223Z,22.30
2023-03-27T00:29:02.265Z,36.20
2023-03-27T00:30:06.105Z,27.70
2023-03-27T00:31:14.075Z,28.50
2023-03-27T00:32:17.304Z,26.00
2023-03-27T00:33:19.546Z,20.00
2023-03-27T00:34:21.704Z,17.70
2023-03-27T00:35:25.967Z,19.70
2023-03-27T00:36:29.019Z,17.30
2023-03-27T00:37:31.712Z,22.80
2023-03-27T00:38:34.306Z,17.55
2023-03-27T00:39:36.889Z,13.80
2023-03-27T00:40:40.757Z,22.20
2023-03-27T00:41:43.976Z,18.90
2023-03-27T00:42:48.684Z,17.70
2023-03-27T00:43:54.101Z,17.90
2023-03-27T00:44:56.914Z,15.60
2023-03-27T00:46:05.254Z,23.50
2023-03-27T00:47:11.498Z,19.10
2023-03-27T00:48:15.285Z,19.40
2023-03-27T00:49:17.875Z,21.00
2023-03-27T00:50:29.965Z,21.50
2023-03-27T00:51:35.200Z,20.30
2023-03-27T00:52:41.813Z,21.00
2023-03-27T00:53:47.097Z,15.60
2023-03-27T00:54:49.652Z,11.40
2023-03-27T00:55:55.078Z,16.10
2023-03-27T00:57:01.126Z,14.10
2023-03-27T00:58:07.033Z,17.80
2023-03-27T00:59:15.938Z,19.10
2023-03-27T01:00:19.444Z,17.30
2023-03-27T01:01:26.619Z,12.80
2023-03-27T01:02:29.232Z,16.80
2023-03-27T01:03:32.649Z,15.80
2023-03-27T01:04:36.941Z,12.30
2023-03-27T01:05:39.517Z,11.70
2023-03-27T01:06:43.857Z,11.55
2023-03-27T01:08:00.801Z,12.70
2023-03-27T01:08:52.737Z,9.50
2023-03-27T01:09:55.895Z,7.40
2023-03-27T01:11:08.555Z,10.60
2023-03-27T01:12:20.886Z,12.20
2023-03-27T01:13:30.502Z,10.10
2023-03-27T01:14:36.408Z,6.80
2023-03-27T01:15:54.454Z,9.20
2023-03-27T01:17:20.556Z,5.90
2023-03-27T01:18:45.706Z,10.40
2023-03-27T01:21:19.801Z,9.40
2023-03-27T01:22:43.415Z,11.30
2023-03-27T01:24:01.503Z,9.80
2023-03-27T01:25:32.186Z,10.90
2023-03-27T01:27:10.038Z,9.20
2023-03-27T01:28:32.646Z,10.80
2023-03-27T01:30:10.148Z,6.00
2023-03-27T01:31:19.097Z,8.80
2023-03-27T01:32:41.731Z,9.10
2023-03-27T01:34:04.505Z,9.40
2023-03-27T01:35:17.037Z,9.10
2023-03-27T01:36:52.309Z,9.90
2023-03-27T01:38:09.647Z,11.50
2023-03-27T01:39:18.745Z,9.60
2023-03-27T01:40:38.582Z,11.30
2023-03-27T01:41:50.428Z,9.80
2023-03-27T01:43:08.543Z,8.80
2023-03-27T01:44:20.514Z,10.20
2023-03-27T01:45:43.295Z,11.20
2023-03-27T01:46:49.259Z,9.30
2023-03-27T01:47:57.955Z,8.50
2023-03-27T01:49:06.646Z,9.20
2023-03-27T01:50:20.392Z,10.70
2023-03-27T01:51:32.796Z,8.30
2023-03-27T01:52:38.796Z,7.20
2023-03-27T01:53:48.841Z,7.70
2023-03-27T01:54:57.836Z,8.20
2023-03-27T01:56:07.565Z,8.40
2023-03-27T01:57:28.416Z,12.70
2023-03-27T01:58:46.363Z,7.40
2023-03-27T02:00:17.410Z,8.30
2023-03-27T02:01:19.703Z,7.60
2023-03-27T02:02:31.902Z,8.20
2023-03-27T02:03:37.707Z,8.20
2023-03-27T02:04:47.389Z,7.80
2023-03-27T02:05:57.747Z,8.90
2023-03-27T02:07:06.480Z,7.90
2023-03-27T02:09:31.199Z,8.20
2023-03-27T02:10:37.540Z,8.60
2023-03-27T02:11:48.534Z,7.00
2023-03-27T02:12:55.366Z,7.40
2023-03-27T02:14:05.355Z,7.40
2023-03-27T02:15:23.897Z,8.10
2023-03-27T02:16:21.849Z,7.70
2023-03-27T02:17:28.170Z,7.80
2023-03-27T02:18:35.298Z,9.60
2023-03-27T02:19:41.414Z,6.80
2023-03-27T02:20:44.828Z,8.30
2023-03-27T02:21:47.611Z,8.00
2023-03-27T02:22:50.881Z,9.80
2023-03-27T02:23:54.787Z,7.30
2023-03-27T02:24:56.975Z,8.80
2023-03-27T02:26:01.178Z,9.60
2023-03-27T02:27:08.508Z,7.60
2023-03-27T02:28:14.214Z,8.00
2023-03-27T02:29:47.019Z,12.60
2023-03-27T02:31:05.405Z,8.20
2023-03-27T02:32:20.937Z,8.60
2023-03-27T02:33:54.988Z,8.80
2023-03-27T02:35:19.668Z,9.90
2023-03-27T02:36:28.986Z,12.00
2023-03-27T02:37:47.422Z,19.10
2023-03-27T02:38:58.127Z,20.80
2023-03-27T02:40:10.684Z,23.20
2023-03-27T02:41:28.763Z,24.80
2023-03-27T02:42:45.523Z,21.30
2023-03-27T02:44:10.271Z,20.90
2023-03-27T02:46:38.433Z,19.80
2023-03-27T02:47:44.989Z,19.40
2023-03-27T02:48:50.960Z,21.00
2023-03-27T02:49:56.979Z,14.70
2023-03-27T02:51:06.090Z,16.30
2023-03-27T02:53:27.991Z,11.50
2023-03-27T02:54:42.511Z,13.70
2023-03-27T02:55:49.439Z,10.40
2023-03-27T02:56:55.600Z,5.70
2023-03-27T02:58:03.639Z,6.30
2023-03-27T02:59:18.557Z,13.40
2023-03-27T03:00:24.074Z,9.10
2023-03-27T03:01:30.877Z,9.70
2023-03-27T03:02:37.505Z,9.10
2023-03-27T03:03:48.131Z,14.20
2023-03-27T03:06:15.222Z,41.30
2023-03-27T03:07:18.054Z,58.60
2023-03-27T03:08:20.993Z,47.70
2023-03-27T03:09:24.859Z,39.64
2023-03-27T03:10:27.755Z,64.80
2023-03-27T03:11:31.215Z,67.00
2023-03-27T03:12:34.810Z,59.60
2023-03-27T03:13:37.864Z,58.50
2023-03-27T03:14:43.835Z,57.27
2023-03-27T03:15:47.207Z,48.90
2023-03-27T03:16:51.162Z,42.80
2023-03-27T03:17:53.794Z,37.09
2023-03-27T03:18:56.541Z,31.60
2023-03-27T03:19:59.151Z,25.73
2023-03-27T03:21:01.664Z,19.00
2023-03-27T03:22:05.384Z,17.90
2023-03-27T03:23:08.511Z,22.10
2023-03-27T03:24:11.734Z,25.00
2023-03-27T03:25:14.012Z,33.50
2023-03-27T03:26:17.783Z,33.50
2023-03-27T03:27:22.050Z,37.60
2023-03-27T03:28:38.229Z,33.40
2023-03-27T03:29:42.205Z,37.20
2023-03-27T03:30:49.850Z,40.00
2023-03-27T03:31:53.440Z,35.90
2023-03-27T03:32:56.730Z,25.70
2023-03-27T03:34:01.879Z,37.80
2023-03-27T03:35:04.833Z,33.70
2023-03-27T03:36:10.120Z,36.10
2023-03-27T03:37:14.694Z,38.30
2023-03-27T03:38:27.432Z,32.91
2023-03-27T03:39:30.400Z,35.10
2023-03-27T03:40:34.158Z,31.50
2023-03-27T03:41:37.354Z,31.10
2023-03-27T03:42:49.169Z,33.82
2023-03-27T03:43:51.854Z,37.50
2023-03-27T03:44:54.184Z,37.50
2023-03-27T03:45:58.666Z,32.60
2023-03-27T03:47:01.139Z,35.30
2023-03-27T03:48:03.557Z,26.80
2023-03-27T03:49:06.650Z,24.90
2023-03-27T03:50:11.199Z,16.18
2023-03-27T03:51:13.521Z,21.40
2023-03-27T03:52:16.736Z,22.10
2023-03-27T03:53:21.025Z,16.80
2023-03-27T03:54:23.674Z,17.40
2023-03-27T03:55:26.286Z,15.60
2023-03-27T03:56:30.431Z,17.50
2023-03-27T03:57:32.994Z,17.70
2023-03-27T03:58:37.867Z,15.10
2023-03-27T03:59:40.459Z,13.20
2023-03-27T04:01:01.997Z,13.90
2023-03-27T04:02:06.316Z,15.90
2023-03-27T04:03:10.349Z,18.80
2023-03-27T04:04:13.841Z,19.40
2023-03-27T04:05:27.608Z,19.70
2023-03-27T04:06:34.233Z,27.40
2023-03-27T04:07:39.115Z,17.40
2023-03-27T04:09:01.801Z,12.40
2023-03-27T04:10:08.199Z,18.20
2023-03-27T04:11:10.611Z,19.40
2023-03-27T04:12:21.370Z,19.40
2023-03-27T04:13:26.586Z,17.70
2023-03-27T04:14:31.332Z,18.40
2023-03-27T04:15:34.885Z,17.10
2023-03-27T04:16:45.274Z,15.50
2023-03-27T04:17:57.104Z,15.20
2023-03-27T04:19:00.590Z,13.50
2023-03-27T04:20:05.459Z,17.30
2023-03-27T04:21:12.055Z,19.60
2023-03-27T04:22:16.733Z,18.50
2023-03-27T04:23:20.948Z,16.20
2023-03-27T04:24:23.911Z,18.90
2023-03-27T04:25:28.315Z,19.80
2023-03-27T04:26:31.853Z,17.10
2023-03-27T04:27:45.103Z,15.40
2023-03-27T04:28:53.595Z,14.50
2023-03-27T04:30:02.623Z,13.60
2023-03-27T04:31:24.641Z,13.70
2023-03-27T04:32:28.923Z,15.20
2023-03-27T04:33:45.849Z,15.10
2023-03-27T04:34:56.092Z,20.40
2023-03-27T04:36:07.210Z,16.10
2023-03-27T04:37:08.135Z,20.40
2023-03-27T04:38:21.100Z,9.80
2023-03-27T04:39:29.687Z,13.40
2023-03-27T04:40:32.719Z,18.10
2023-03-27T04:41:35.073Z,15.30
2023-03-27T04:42:41.463Z,17.00
2023-03-27T04:43:45.840Z,18.40
2023-03-27T04:44:48.053Z,19.80
2023-03-27T04:45:51.104Z,23.70
2023-03-27T04:46:54.030Z,23.10
2023-03-27T04:47:58.119Z,20.70
2023-03-27T04:49:00.569Z,26.60
2023-03-27T04:50:21.228Z,34.10
2023-03-27T04:51:26.020Z,31.18
2023-03-27T04:52:29.081Z,28.10
2023-03-27T04:53:34.033Z,25.20
2023-03-27T04:54:36.262Z,29.30
2023-03-27T04:55:38.722Z,31.40
2023-03-27T04:56:44.778Z,29.10
2023-03-27T04:57:47.816Z,36.20
2023-03-27T04:58:50.773Z,33.00
2023-03-27T04:59:53.424Z,28.82
2023-03-27T05:01:16.689Z,20.80
2023-03-27T05:02:27.899Z,26.00
2023-03-27T05:03:34.114Z,17.20
2023-03-27T05:04:45.574Z,20.30
2023-03-27T05:05:53.205Z,13.90
2023-03-27T05:06:57.524Z,23.10
2023-03-27T05:07:59.969Z,20.20
2023-03-27T05:09:03.369Z,10.50
2023-03-27T05:10:08.747Z,19.80
2023-03-27T05:11:13.577Z,14.90
2023-03-27T05:12:17.847Z,17.20
2023-03-27T05:13:24.962Z,23.20
2023-03-27T05:14:27.548Z,19.80
2023-03-27T05:15:33.183Z,17.50
2023-03-27T05:16:36.752Z,23.90
2023-03-27T05:17:43.563Z,24.70
2023-03-27T05:18:46.374Z,19.60
2023-03-27T05:19:49.181Z,14.80
2023-03-27T05:20:52.755Z,14.64
2023-03-27T05:21:55.127Z,12.70
2023-03-27T05:22:57.446Z,15.20
2023-03-27T05:24:04.293Z,11.00
2023-03-27T05:25:08.440Z,12.20
2023-03-27T05:26:10.969Z,13.30
2023-03-27T05:27:31.237Z,11.70
2023-03-27T05:28:35.400Z,14.30
2023-03-27T05:29:47.134Z,13.00
2023-03-27T05:30:43.518Z,14.70
2023-03-27T05:31:53.877Z,16.90
2023-03-27T05:33:01.481Z,15.60
2023-03-27T05:34:05.548Z,12.40
2023-03-27T05:35:10.500Z,20.80
2023-03-27T05:36:14.915Z,16.90
2023-03-27T05:37:19.192Z,12.00
2023-03-27T05:38:35.493Z,13.70
2023-03-27T05:39:54.619Z,19.30
2023-03-27T05:41:01.757Z,24.10
2023-03-27T05:42:05.531Z,19.10
2023-03-27T05:43:08.825Z,15.10
2023-03-27T05:44:12.956Z,15.00
2023-03-27T05:45:18.126Z,14.90
2023-03-27T05:46:24.680Z,15.40
2023-03-27T05:47:29.121Z,13.30
2023-03-27T05:48:31.640Z,16.10
2023-03-27T05:49:37.050Z,14.30
2023-03-27T05:50:44.742Z,18.50
2023-03-27T05:51:53.107Z,16.10
2023-03-27T05:54:08.776Z,15.90
2023-03-27T05:55:16.149Z,7.00
2023-03-27T05:56:20.048Z,11.50
2023-03-27T05:57:24.628Z,12.30
2023-03-27T05:58:29.552Z,15.10
2023-03-27T05:59:34.776Z,12.90
2023-03-27T06:00:43.955Z,13.90
2023-03-27T06:01:51.261Z,9.00
2023-03-27T06:02:58.187Z,14.50
2023-03-27T06:04:03.867Z,15.20
2023-03-27T06:05:24.765Z,10.30
2023-03-27T06:06:28.413Z,9.70
2023-03-27T06:07:32.596Z,9.10
2023-03-27T06:08:37.786Z,9.20
2023-03-27T06:09:42.326Z,8.10
2023-03-27T06:11:03.310Z,6.90
2023-03-27T06:12:09.578Z,8.30
2023-03-27T06:13:14.035Z,9.80
2023-03-27T06:14:27.408Z,7.50
2023-03-27T06:15:40.790Z,7.90
2023-03-27T06:16:46.048Z,6.50
2023-03-27T06:18:08.533Z,10.10
2023-03-27T06:19:12.519Z,9.70
2023-03-27T06:20:19.252Z,11.50
2023-03-27T06:21:23.481Z,11.30
2023-03-27T06:22:27.841Z,8.70
2023-03-27T06:23:31.343Z,8.27
2023-03-27T06:24:33.957Z,7.36
2023-03-27T06:25:38.738Z,9.20
2023-03-27T06:26:42.258Z,9.10
2023-03-27T06:27:48.716Z,7.90
2023-03-27T06:28:51.978Z,8.80
2023-03-27T06:29:54.505Z,9.10
2023-03-27T06:30:57.116Z,7.60
2023-03-27T06:32:02.131Z,10.20
2023-03-27T06:33:08.252Z,8.90
2023-03-27T06:34:12.640Z,8.90
2023-03-27T06:35:31.285Z,6.20
2023-03-27T06:36:35.867Z,8.80
2023-03-27T06:37:41.239Z,8.80
2023-03-27T06:38:44.301Z,8.30
2023-03-27T06:39:48.828Z,8.10
2023-03-27T06:40:51.781Z,7.60
2023-03-27T06:41:55.707Z,6.80
2023-03-27T06:43:09.101Z,4.40
2023-03-27T06:44:13.268Z,8.00
2023-03-27T06:45:21.975Z,8.20
2023-03-27T06:46:45.710Z,7.80
2023-03-27T06:48:15.308Z,9.30
2023-03-27T06:49:04.474Z,10.00
2023-03-27T06:50:09.894Z,7.00
2023-03-27T06:51:12.535Z,9.60
2023-03-27T06:52:15.083Z,8.80
2023-03-27T06:54:24.374Z,10.40
2023-03-27T06:55:31.234Z,10.80
2023-03-27T06:56:34.090Z,12.60
2023-03-27T06:57:49.901Z,12.20
2023-03-27T06:58:54.581Z,13.70
2023-03-27T07:00:01.606Z,15.30
2023-03-27T07:01:05.695Z,16.20
2023-03-27T07:02:21.734Z,12.80
2023-03-27T07:03:41.594Z,9.50
2023-03-27T07:05:04.183Z,12.50
2023-03-27T07:06:01.693Z,8.90
2023-03-27T07:07:06.626Z,10.60
2023-03-27T07:08:23.477Z,9.70
2023-03-27T07:09:19.903Z,15.60
2023-03-27T07:10:25.648Z,13.40
2023-03-27T07:11:31.837Z,10.90
2023-03-27T07:12:37.375Z,10.40
2023-03-27T07:13:40.678Z,10.80
2023-03-27T07:14:44.884Z,10.00
2023-03-27T07:15:47.455Z,9.10
2023-03-27T07:16:50.286Z,12.00
2023-03-27T07:17:59.289Z,6.30
2023-03-27T07:19:02.630Z,10.70
2023-03-27T07:20:09.823Z,10.70
2023-03-27T07:21:14.072Z,7.80
2023-03-27T07:22:17.133Z,11.00
2023-03-27T07:23:21.414Z,7.20
2023-03-27T07:24:25.756Z,10.80
2023-03-27T07:25:35.752Z,10.50
2023-03-27T07:26:38.553Z,9.30
2023-03-27T07:27:53.453Z,13.30
2023-03-27T07:29:00.138Z,9.80
2023-03-27T07:30:02.206Z,12.30
2023-03-27T07:31:25.857Z,5.90
2023-03-27T07:32:29.791Z,10.00
2023-03-27T07:33:24.728Z,10.10
2023-03-27T07:34:28.596Z,11.30
2023-03-27T07:36:57.080Z,10.80
2023-03-27T07:37:59.854Z,12.00
2023-03-27T07:39:04.461Z,12.20
2023-03-27T07:40:10.129Z,13.00
2023-03-27T07:41:13.116Z,11.70
2023-03-27T07:42:20.305Z,9.80
2023-03-27T07:43:24.662Z,10.40
2023-03-27T07:44:27.547Z,12.00
2023-03-27T07:45:32.601Z,8.60
2023-03-27T07:46:37.072Z,11.00
2023-03-27T07:47:42.823Z,15.50
2023-03-27T07:48:45.226Z,10.00
2023-03-27T07:49:49.605Z,10.60
2023-03-27T07:51:10.760Z,11.80
2023-03-27T07:52:04.710Z,10.70
2023-03-27T07:53:08.994Z,12.60
2023-03-27T07:54:15.216Z,13.60
2023-03-27T07:55:21.860Z,10.20
2023-03-27T07:56:26.481Z,12.40
2023-03-27T07:57:57.231Z,7.00
2023-03-27T07:58:47.481Z,10.30
2023-03-27T07:59:53.247Z,10.40
2023-03-27T08:01:08.218Z,11.60
2023-03-27T08:02:11.157Z,12.60
2023-03-27T08:03:14.252Z,11.80
2023-03-27T08:04:21.771Z,12.60
2023-03-27T08:05:34.234Z,10.40
2023-03-27T08:06:38.535Z,12.30
2023-03-27T08:07:45.316Z,6.80
2023-03-27T08:08:50.293Z,11.50
2023-03-27T08:09:53.362Z,12.40
2023-03-27T08:10:58.125Z,9.80
2023-03-27T08:12:03.800Z,9.90
2023-03-27T08:13:06.294Z,9.50
2023-03-27T08:14:08.647Z,11.70
2023-03-27T08:15:11.280Z,15.40
2023-03-27T08:16:17.913Z,15.10
2023-03-27T08:17:22.139Z,13.70
2023-03-27T08:18:25.476Z,10.40
2023-03-27T08:19:28.642Z,6.60
2023-03-27T08:20:33.851Z,10.80
2023-03-27T08:21:36.508Z,11.60
2023-03-27T08:22:39.701Z,10.50
2023-03-27T08:23:47.086Z,11.40
2023-03-27T08:24:54.114Z,7.30
2023-03-27T08:26:02.107Z,14.20
2023-03-27T08:27:06.583Z,13.30
2023-03-27T08:28:10.920Z,10.20
2023-03-27T08:29:16.937Z,6.80
2023-03-27T08:30:24.191Z,12.60
2023-03-27T08:31:29.912Z,14.40
2023-03-27T08:32:35.375Z,10.60
2023-03-27T08:33:41.433Z,5.60
2023-03-27T08:34:46.170Z,7.90
2023-03-27T08:35:50.970Z,9.10
2023-03-27T08:36:55.157Z,5.70
2023-03-27T08:37:58.004Z,10.50
2023-03-27T08:39:11.348Z,8.30
2023-03-27T08:40:26.419Z,10.30
2023-03-27T08:41:41.861Z,11.70
2023-03-27T08:42:49.978Z,13.10
2023-03-27T08:43:56.552Z,11.90
2023-03-27T08:45:02.608Z,11.80
2023-03-27T08:46:23.448Z,10.00
2023-03-27T08:47:37.160Z,11.20
2023-03-27T08:48:47.761Z,11.60
2023-03-27T08:49:54.725Z,9.90
2023-03-27T08:51:05.858Z,12.10
2023-03-27T08:52:15.291Z,11.50
2023-03-27T08:53:24.713Z,8.20
2023-03-27T08:54:33.564Z,4.60
2023-03-27T08:55:44.069Z,8.40
2023-03-27T08:57:07.659Z,8.70
2023-03-27T08:58:21.450Z,8.40
2023-03-27T08:59:28.975Z,8.60
2023-03-27T09:00:35.402Z,7.40
2023-03-27T09:02:00.299Z,6.10
2023-03-27T09:03:18.592Z,3.80
2023-03-27T09:04:43.627Z,7.60
2023-03-27T09:05:59.926Z,9.60
2023-03-27T09:07:27.821Z,5.70
2023-03-27T09:08:49.052Z,9.50
2023-03-27T09:10:07.454Z,8.90
2023-03-27T09:11:25.173Z,8.90
2023-03-27T09:12:37.404Z,6.70
2023-03-27T09:13:43.909Z,7.10
2023-03-27T09:14:50.544Z,7.00
2023-03-27T09:15:57.843Z,9.20
2023-03-27T09:17:04.459Z,7.10
2023-03-27T09:18:18.046Z,6.70
2023-03-27T09:19:37.623Z,7.50
2023-03-27T09:20:44.847Z,4.80
2023-03-27T09:21:53.981Z,5.30
2023-03-27T09:23:13.928Z,7.30
2023-03-27T09:25:47.645Z,7.10
2023-03-27T09:27:18.172Z,7.60
2023-03-27T09:28:25.931Z,7.60
2023-03-27T09:29:34.109Z,7.10
2023-03-27T09:30:42.657Z,6.00
2023-03-27T09:31:49.674Z,6.70
2023-03-27T09:33:03.446Z,8.50
2023-03-27T09:34:11.269Z,9.20
2023-03-27T09:35:16.438Z,4.10
2023-03-27T09:36:19.394Z,7.00
2023-03-27T09:37:21.733Z,6.90
2023-03-27T09:38:27.890Z,7.30
2023-03-27T09:39:33.505Z,6.40
2023-03-27T09:40:44.059Z,5.90
2023-03-27T09:41:53.737Z,6.20
2023-03-27T09:43:00.126Z,6.20
2023-03-27T09:44:12.380Z,8.00
2023-03-27T09:45:18.125Z,5.90
2023-03-27T09:46:27.470Z,6.20
2023-03-27T09:47:37.747Z,6.30
2023-03-27T09:48:45.635Z,7.60
2023-03-27T09:49:56.493Z,5.20
2023-03-27T09:51:01.883Z,4.50
2023-03-27T09:52:13.773Z,6.90
2023-03-27T09:53:25.322Z,5.90
2023-03-27T09:54:36.626Z,6.10
2023-03-27T09:55:56.809Z,6.20
2023-03-27T09:57:05.972Z,5.80
2023-03-27T09:58:24.225Z,5.30
2023-03-27T09:59:32.496Z,4.30
2023-03-27T10:00:37.318Z,6.00
2023-03-27T10:01:45.250Z,2.40
2023-03-27T10:02:53.109Z,5.00
2023-03-27T10:03:59.048Z,7.20
2023-03-27T10:05:18.219Z,5.20
2023-03-27T10:06:32.237Z,4.80
2023-03-27T10:07:40.531Z,4.00
2023-03-27T10:09:07.511Z,5.00
2023-03-27T10:10:20.853Z,3.60
2023-03-27T10:11:33.845Z,4.60
2023-03-27T10:12:39.609Z,4.40
2023-03-27T10:13:48.389Z,5.40
2023-03-27T10:14:53.095Z,3.80
2023-03-27T10:16:05.818Z,4.20
2023-03-27T10:17:39.196Z,4.30
2023-03-27T10:18:50.111Z,5.00
2023-03-27T10:21:30.017Z,6.70
2023-03-27T10:22:38.324Z,4.60
2023-03-27T10:23:44.033Z,4.40
2023-03-27T10:24:48.912Z,4.30
2023-03-27T10:26:02.563Z,5.60
2023-03-27T10:27:12.696Z,4.80
2023-03-27T10:28:23.089Z,3.70
2023-03-27T10:29:37.551Z,5.90
2023-03-27T10:30:42.913Z,3.80
2023-03-27T10:32:05.674Z,5.10
2023-03-27T10:33:12.576Z,4.30
2023-03-27T10:34:36.049Z,4.00
2023-03-27T10:35:52.997Z,4.00
2023-03-27T10:37:01.015Z,3.90
2023-03-27T10:38:14.376Z,4.00
2023-03-27T10:39:19.035Z,6.30
2023-03-27T10:40:38.000Z,4.20
2023-03-27T10:41:42.636Z,4.00
2023-03-27T10:42:47.879Z,2.90
2023-03-27T10:43:52.451Z,4.80
2023-03-27T10:44:58.094Z,3.60
2023-03-27T10:46:06.171Z,7.10
2023-03-27T10:47:21.870Z,4.50
2023-03-27T10:48:32.203Z,3.90
2023-03-27T10:49:43.989Z,4.40
2023-03-27T10:50:53.589Z,5.00
2023-03-27T10:52:08.416Z,2.70
2023-03-27T10:53:16.433Z,2.30
2023-03-27T10:54:36.854Z,2.20
2023-03-27T10:55:45.456Z,5.00
2023-03-27T10:57:17.364Z,2.70
2023-03-27T10:58:33.274Z,4.20
2023-03-27T10:59:47.377Z,4.90
2023-03-27T11:02:17.704Z,4.70
2023-03-27T11:03:37.477Z,3.90
2023-03-27T11:04:50.837Z,5.50
2023-03-27T11:05:55.580Z,3.20
2023-03-27T11:07:04.791Z,5.00
2023-03-27T11:08:12.161Z,4.20
2023-03-27T11:09:41.171Z,5.00
2023-03-27T11:10:47.465Z,5.10
2023-03-27T11:12:01.795Z,5.60
2023-03-27T11:13:13.234Z,3.50
2023-03-27T11:14:27.741Z,4.50
2023-03-27T11:15:38.747Z,4.40
2023-03-27T11:16:49.778Z,5.80
2023-03-27T11:18:26.404Z,3.70
2023-03-27T11:21:18.811Z,4.10
2023-03-27T11:22:29.961Z,1.00
2023-03-27T11:23:39.779Z,3.40
2023-03-27T11:25:05.771Z,3.30
2023-03-27T11:26:12.135Z,4.40
2023-03-27T11:27:20.456Z,2.70
2023-03-27T11:28:51.998Z,3.30
2023-03-27T11:30:04.493Z,1.90
2023-03-27T11:31:32.769Z,3.30
2023-03-27T11:32:48.683Z,3.70
2023-03-27T11:33:55.139Z,3.50
2023-03-27T11:36:42.987Z,2.20
2023-03-27T11:39:17.666Z,3.50
2023-03-27T11:40:26.421Z,4.20
2023-03-27T11:41:33.892Z,3.20
2023-03-27T11:42:41.869Z,3.90
2023-03-27T11:43:47.399Z,2.40
2023-03-27T11:45:02.232Z,2.80
2023-03-27T11:46:23.611Z,4.40
2023-03-27T11:47:48.638Z,3.00
2023-03-27T11:48:56.184Z,1.90
2023-03-27T11:50:02.758Z,2.40
2023-03-27T11:51:16.958Z,1.70
2023-03-27T11:52:42.542Z,4.40
2023-03-27T11:54:14.655Z,4.00
2023-03-27T11:55:34.316Z,2.20
2023-03-27T11:56:46.700Z,2.20
2023-03-27T11:58:04.596Z,3.20
2023-03-27T11:59:24.353Z,3.60
2023-03-27T12:00:42.000Z,4.60
2023-03-27T12:01:53.585Z,3.10
2023-03-27T12:03:16.233Z,2.60
2023-03-27T12:04:42.250Z,3.50
2023-03-27T12:06:05.077Z,2.60
2023-03-27T12:07:34.134Z,2.40
2023-03-27T12:08:34.868Z,2.50
2023-03-27T12:09:40.985Z,2.70
2023-03-27T12:11:06.549Z,2.80
2023-03-27T12:12:17.172Z,3.60
2023-03-27T12:13:46.205Z,2.60
2023-03-27T12:15:17.579Z,2.70
2023-03-27T12:16:33.889Z,2.20
2023-03-27T12:17:46.792Z,3.10
2023-03-27T12:19:03.769Z,3.30
2023-03-27T12:20:21.092Z,4.00
2023-03-27T12:21:34.772Z,2.50
2023-03-27T12:22:44.271Z,3.60
2023-03-27T12:25:56.193Z,3.20
2023-03-27T12:27:38.019Z,1.90
2023-03-27T12:29:23.202Z,2.90
2023-03-27T12:30:33.752Z,1.90
2023-03-27T12:31:46.267Z,3.00
2023-03-27T12:33:12.534Z,3.70
2023-03-27T12:34:27.750Z,4.30
2023-03-27T12:35:34.142Z,3.50
2023-03-27T12:36:40.835Z,4.20
2023-03-27T12:37:58.890Z,4.30
2023-03-27T12:39:24.441Z,3.00
2023-03-27T12:40:36.369Z,4.40
2023-03-27T12:41:45.032Z,2.70
2023-03-27T12:42:52.367Z,3.20
2023-03-27T12:43:58.513Z,3.50
2023-03-27T12:45:21.955Z,1.40
2023-03-27T12:46:32.301Z,3.90
2023-03-27T12:47:34.955Z,1.40
2023-03-27T12:48:58.513Z,4.70
2023-03-27T12:50:05.821Z,5.10
2023-03-27T12:51:13.230Z,3.20
2023-03-27T12:52:17.465Z,4.30
2023-03-27T12:53:37.633Z,6.00
2023-03-27T12:55:07.865Z,6.90
2023-03-27T12:56:35.304Z,7.60
2023-03-27T12:57:43.973Z,6.80
2023-03-27T12:58:52.706Z,6.20
2023-03-27T13:00:00.324Z,5.50
2023-03-27T13:01:08.664Z,3.60
2023-03-27T13:02:19.917Z,3.70
2023-03-27T13:03:35.646Z,3.90
2023-03-27T13:05:16.484Z,3.10
2023-03-27T13:06:45.008Z,4.20
2023-03-27T13:08:10.484Z,5.00
2023-03-27T13:09:36.465Z,0.60
2023-03-27T13:10:47.470Z,5.00
2023-03-27T13:11:58.228Z,4.50
2023-03-27T13:13:11.973Z,4.70
2023-03-27T13:14:32.158Z,4.30
2023-03-27T13:15:41.987Z,4.60
2023-03-27T13:18:26.486Z,4.40
2023-03-27T13:19:41.488Z,3.90
2023-03-27T13:22:27.351Z,5.00
2023-03-27T13:23:51.596Z,6.90
2023-03-27T13:25:08.949Z,5.30
2023-03-27T13:26:23.127Z,4.40
2023-03-27T13:27:47.186Z,4.50
2023-03-27T13:28:53.854Z,4.00
2023-03-27T13:29:57.139Z,5.30
2023-03-27T13:31:04.979Z,4.30
2023-03-27T13:32:37.253Z,4.40
2023-03-27T13:33:51.701Z,4.60
2023-03-27T13:35:22.600Z,4.30
2023-03-27T13:36:26.316Z,4.80
2023-03-27T13:37:36.905Z,7.80
2023-03-27T13:38:47.909Z,6.70
2023-03-27T13:40:02.079Z,4.30
2023-03-27T13:41:39.689Z,4.10
2023-03-27T13:42:47.115Z,4.00
2023-03-27T13:43:50.866Z,4.10
2023-03-27T13:45:30.110Z,4.20
2023-03-27T13:47:13.323Z,2.50
2023-03-27T13:48:38.067Z,4.50
2023-03-27T13:49:48.043Z,2.80
2023-03-27T13:50:57.247Z,5.60
2023-03-27T13:52:12.839Z,4.10
2023-03-27T13:53:42.736Z,3.10
2023-03-27T13:55:28.332Z,3.50
2023-03-27T13:57:06.925Z,3.50
2023-03-27T13:58:32.947Z,3.10
2023-03-27T14:00:00.978Z,4.40
2023-03-27T14:01:17.011Z,3.00
2023-03-27T14:02:45.261Z,4.60
2023-03-27T14:04:00.971Z,5.50
2023-03-27T14:05:12.028Z,3.70
2023-03-27T14:06:38.640Z,4.30
2023-03-27T14:08:12.827Z,5.00
2023-03-27T14:09:38.369Z,5.30
2023-03-27T14:11:14.183Z,4.80
2023-03-27T14:12:40.976Z,4.20
2023-03-27T14:13:49.297Z,4.10
2023-03-27T14:14:56.240Z,5.80
2023-03-27T14:16:27.567Z,3.50
2023-03-27T14:17:38.490Z,3.50
2023-03-27T14:19:03.920Z,5.60
2023-03-27T14:21:52.765Z,7.00
2023-03-27T14:23:10.993Z,3.50
2023-03-27T14:24:34.118Z,3.90
2023-03-27T14:25:43.219Z,5.30
2023-03-27T14:26:55.492Z,4.80
2023-03-27T14:28:00.163Z,6.00
2023-03-27T14:29:02.913Z,6.90
2023-03-27T14:30:15.878Z,6.10
2023-03-27T14:31:22.859Z,3.20
2023-03-27T14:32:27.623Z,4.80
2023-03-27T14:33:31.528Z,4.20
2023-03-27T14:34:47.357Z,4.20
2023-03-27T14:35:46.473Z,3.80
2023-03-27T14:36:51.818Z,4.40
2023-03-27T14:38:02.896Z,3.30
2023-03-27T14:39:16.329Z,5.90
2023-03-27T14:40:25.316Z,3.60
2023-03-27T14:41:29.211Z,4.80
2023-03-27T14:42:35.250Z,5.90
2023-03-27T14:43:42.637Z,4.50
2023-03-27T14:44:46.290Z,5.00
2023-03-27T14:45:52.983Z,7.20
2023-03-27T14:47:03.439Z,6.60
2023-03-27T14:48:10.037Z,7.40
2023-03-27T14:49:27.041Z,6.60
2023-03-27T14:50:33.862Z,6.20
2023-03-27T14:51:41.300Z,9.20
2023-03-27T14:52:49.498Z,5.50
2023-03-27T14:53:58.928Z,5.20
2023-03-27T14:55:05.713Z,4.90
2023-03-27T14:56:22.563Z,5.90
2023-03-27T14:57:30.797Z,3.40
2023-03-27T14:58:36.753Z,6.40
2023-03-27T14:59:43.701Z,6.00
2023-03-27T15:00:59.710Z,6.10
2023-03-27T15:02:07.275Z,5.30
2023-03-27T15:03:16.178Z,5.80
2023-03-27T15:04:19.144Z,4.10
2023-03-27T15:05:22.461Z,4.90
2023-03-27T15:06:27.577Z,6.70
2023-03-27T15:07:36.776Z,5.40
2023-03-27T15:10:17.115Z,9.80
2023-03-27T15:11:28.111Z,7.50
2023-03-27T15:12:34.354Z,6.50
2023-03-27T15:13:37.517Z,9.40
2023-03-27T15:14:43.834Z,8.70
2023-03-27T15:15:50.798Z,8.90
2023-03-27T15:17:05.429Z,7.70
2023-03-27T15:18:30.877Z,8.50
2023-03-27T15:19:43.832Z,9.40
2023-03-27T15:20:47.921Z,7.10
2023-03-27T15:21:56.342Z,5.40
2023-03-27T15:23:25.926Z,6.20
2023-03-27T15:24:45.169Z,6.60
2023-03-27T15:26:00.905Z,7.90
2023-03-27T15:27:05.403Z,7.30
2023-03-27T15:28:18.284Z,9.60
2023-03-27T15:29:32.482Z,7.70
2023-03-27T15:30:43.400Z,13.30
2023-03-27T15:31:50.353Z,7.10
2023-03-27T15:32:56.284Z,9.60
2023-03-27T15:34:03.352Z,11.30
2023-03-27T15:35:07.718Z,12.30
2023-03-27T15:36:15.768Z,8.10
2023-03-27T15:37:23.917Z,8.70
2023-03-27T15:38:30.767Z,11.20
2023-03-27T15:39:36.476Z,9.60
2023-03-27T15:40:42.815Z,13.10
2023-03-27T15:41:50.985Z,13.20
2023-03-27T15:42:57.169Z,13.70
2023-03-27T15:44:06.833Z,10.10